Time;durP1;ratioP1;P1;durP2;ratioP2;P2;SDS_P1;SDS_P2;PMS_P1;PMS_P2;Temp;Humidity;BMP_temperature;BMP_pressure;BME280_temperature;BME280_humidity;BME280_pressure;Samples;Min_cycle;Max_cycle;Signal;HPM_P1;HPM_P2
2023/05/07 00:01:18;;;;;;;0.88;0.80;;;19.20;75.40;;;;;;5041682;28;46886;-72
2023/05/07 00:03:46;;;;;;;0.95;0.55;;;19.20;75.40;;;;;;5041235;27;45475;-72
2023/05/07 00:06:13;;;;;;;0.95;0.70;;;19.20;75.40;;;;;;5041840;28;45373;-72
2023/05/07 00:08:40;;;;;;;0.80;0.70;;;19.20;75.20;;;;;;5042245;28;45320;-72
2023/05/07 00:11:06;;;;;;;1.48;0.90;;;19.20;75.20;;;;;;5041742;28;47502;-72
2023/05/07 00:13:35;;;;;;;1.00;0.75;;;19.20;75.30;;;;;;5041464;28;45334;-72
2023/05/07 00:16:02;;;;;;;0.60;0.60;;;19.20;75.10;;;;;;5041579;28;45336;-72
2023/05/07 00:18:28;;;;;;;0.98;0.80;;;19.30;75.00;;;;;;5041508;28;45302;-72
2023/05/07 00:20:57;;;;;;;0.68;0.68;;;19.20;74.90;;;;;;5041426;28;47295;-72
2023/05/07 00:23:24;;;;;;;1.45;0.77;;;19.30;74.90;;;;;;5041327;28;45329;-72
2023/05/07 00:25:51;;;;;;;1.10;0.80;;;19.30;74.90;;;;;;5040651;28;45354;-72
2023/05/07 00:28:17;;;;;;;1.48;0.80;;;19.30;75.10;;;;;;5040327;28;45453;-72
2023/05/07 00:30:44;;;;;;;0.98;0.88;;;19.20;75.20;;;;;;5041330;28;46592;-72
2023/05/07 00:33:11;;;;;;;1.00;0.88;;;19.20;75.30;;;;;;5041548;28;45282;-72
2023/05/07 00:35:38;;;;;;;1.70;0.80;;;19.30;75.70;;;;;;5041431;28;45184;-72
2023/05/07 00:38:06;;;;;;;0.80;0.73;;;19.20;75.50;;;;;;5041823;28;45375;-72
2023/05/07 00:40:32;;;;;;;0.75;0.75;;;19.20;75.50;;;;;;5041252;28;47785;-72
2023/05/07 00:42:59;;;;;;;1.15;0.90;;;19.20;75.60;;;;;;5041151;28;46383;-72
2023/05/07 00:45:27;;;;;;;0.95;0.70;;;19.20;75.40;;;;;;5038376;28;45223;-72
2023/05/07 00:47:56;;;;;;;0.90;0.73;;;19.20;75.50;;;;;;5041410;28;45297;-72
2023/05/07 00:50:23;;;;;;;2.05;0.95;;;19.20;75.50;;;;;;5041140;28;45334;-72
2023/05/07 00:52:50;;;;;;;1.50;0.88;;;19.20;75.40;;;;;;5041328;28;45375;-72
2023/05/07 00:55:18;;;;;;;0.65;0.63;;;19.20;75.40;;;;;;5041705;27;45320;-72
2023/05/07 00:57:46;;;;;;;1.40;0.82;;;19.20;75.20;;;;;;5041662;28;45533;-72
2023/05/07 01:00:13;;;;;;;0.95;0.73;;;19.20;75.10;;;;;;5041544;28;47923;-72
2023/05/07 01:02:40;;;;;;;0.88;0.73;;;19.20;75.20;;;;;;5041164;28;45344;-72
2023/05/07 01:05:10;;;;;;;0.88;0.68;;;19.20;74.90;;;;;;5041130;28;45229;-71
2023/05/07 01:07:38;;;;;;;0.82;0.52;;;19.20;75.00;;;;;;5041325;28;45398;-72
2023/05/07 01:10:06;;;;;;;1.38;0.88;;;19.20;74.90;;;;;;5041246;28;46090;-72
2023/05/07 01:12:36;;;;;;;0.70;0.70;;;19.20;75.10;;;;;;5040822;28;45730;-72
2023/05/07 01:15:03;;;;;;;0.70;0.60;;;19.20;75.20;;;;;;5041246;28;45205;-72
2023/05/07 01:17:30;;;;;;;1.10;0.70;;;19.20;76.30;;;;;;5041106;28;45234;-72
2023/05/07 01:19:57;;;;;;;0.90;0.75;;;19.20;75.40;;;;;;5040753;28;47492;-72
2023/05/07 01:22:31;;;;;;;0.93;0.73;;;19.20;75.40;;;;;;5041116;28;45479;-72
2023/05/07 01:24:59;;;;;;;0.88;0.80;;;19.20;75.50;;;;;;5040634;28;45273;-72
2023/05/07 01:27:26;;;;;;;1.27;0.80;;;19.20;75.40;;;;;;5040679;28;45413;-72
2023/05/07 01:29:52;;;;;;;0.98;0.80;;;19.20;75.50;;;;;;5029975;28;47495;-72
2023/05/07 01:32:23;;;;;;;1.08;0.88;;;19.20;75.40;;;;;;5040937;28;45224;-72
2023/05/07 01:34:52;;;;;;;1.52;0.90;;;19.20;75.40;;;;;;5032882;28;45445;-72
2023/05/07 01:37:18;;;;;;;0.70;0.70;;;19.20;75.40;;;;;;5040865;28;45526;-72
2023/05/07 01:39:47;;;;;;;1.00;0.70;;;19.20;75.30;;;;;;5041961;28;47176;-72
2023/05/07 01:42:14;;;;;;;1.23;0.70;;;19.20;75.20;;;;;;5043672;28;45521;-72
2023/05/07 01:44:41;;;;;;;1.05;0.75;;;19.20;75.20;;;;;;5043830;28;45281;-72
2023/05/07 01:47:09;;;;;;;0.75;0.70;;;19.20;75.10;;;;;;5043152;28;45346;-73
2023/05/07 01:49:36;;;;;;;0.98;0.70;;;19.20;75.00;;;;;;5043560;28;47029;-72
2023/05/07 01:52:03;;;;;;;1.00;0.75;;;19.20;75.00;;;;;;5043065;28;45368;-72
2023/05/07 01:54:30;;;;;;;0.60;0.60;;;19.20;75.00;;;;;;5043456;27;45258;-72
2023/05/07 01:56:58;;;;;;;1.05;0.90;;;19.20;74.90;;;;;;5043032;27;45322;-72
2023/05/07 01:59:25;;;;;;;0.75;0.60;;;19.20;75.30;;;;;;5043087;27;46627;-72
2023/05/07 02:01:52;;;;;;;1.23;0.70;;;19.20;75.30;;;;;;5043358;28;45306;-72
2023/05/07 02:04:19;;;;;;;0.90;0.75;;;19.20;75.40;;;;;;5042988;28;45382;-72
2023/05/07 02:06:46;;;;;;;1.77;0.90;;;19.20;75.40;;;;;;5043313;28;45666;-72
2023/05/07 02:09:12;;;;;;;1.00;0.88;;;19.20;75.40;;;;;;5043509;28;45535;-72
2023/05/07 02:11:39;;;;;;;0.70;0.70;;;19.20;75.40;;;;;;5043808;28;45281;-71
2023/05/07 02:14:07;;;;;;;0.60;0.60;;;19.20;75.30;;;;;;5043262;28;45216;-72
2023/05/07 02:16:34;;;;;;;1.30;0.93;;;19.20;75.40;;;;;;5043402;28;45180;-71
2023/05/07 02:19:01;;;;;;;1.02;0.70;;;19.20;75.40;;;;;;5043095;28;47536;-72
2023/05/07 02:21:28;;;;;;;1.00;0.80;;;19.20;75.40;;;;;;5042782;28;45208;-72
2023/05/07 02:23:55;;;;;;;1.20;0.80;;;19.20;75.20;;;;;;5043183;28;45347;-72
2023/05/07 02:26:22;;;;;;;1.20;0.93;;;19.20;75.20;;;;;;5042932;28;45472;-72
2023/05/07 02:28:49;;;;;;;1.00;0.60;;;19.20;75.10;;;;;;5043136;28;47961;-72
2023/05/07 02:31:17;;;;;;;1.17;0.80;;;19.30;75.10;;;;;;5043104;28;45326;-72
2023/05/07 02:33:45;;;;;;;2.25;0.90;;;19.20;75.00;;;;;;5043109;28;45294;-72
2023/05/07 02:36:12;;;;;;;0.93;0.60;;;19.20;74.90;;;;;;5042872;28;45185;-71
2023/05/07 02:38:39;;;;;;;1.08;0.60;;;19.20;74.80;;;;;;5043054;27;45360;-72
2023/05/07 02:41:06;;;;;;;0.73;0.65;;;19.20;74.70;;;;;;5042791;28;45365;-72
2023/05/07 02:43:33;;;;;;;0.95;0.70;;;19.20;74.90;;;;;;5042869;28;45300;-72
2023/05/07 02:46:03;;;;;;;0.60;0.60;;;19.20;75.00;;;;;;5042335;27;45427;-72
2023/05/07 02:48:32;;;;;;;1.20;0.90;;;19.20;75.00;;;;;;5042524;28;47944;-72
2023/05/07 02:50:59;;;;;;;1.05;0.70;;;19.20;74.90;;;;;;5041784;28;45564;-72
2023/05/07 02:53:26;;;;;;;1.13;0.80;;;19.10;74.80;;;;;;5042813;28;45295;-71
2023/05/07 02:55:53;;;;;;;0.77;0.70;;;19.10;74.80;;;;;;5042800;28;45553;-72
2023/05/07 02:58:20;;;;;;;0.90;0.77;;;19.10;74.80;;;;;;5043012;28;48610;-72
2023/05/07 03:00:47;;;;;;;1.27;0.85;;;19.10;74.90;;;;;;5043109;28;45515;-71
2023/05/07 03:03:14;;;;;;;0.90;0.70;;;19.10;75.00;;;;;;5042939;28;45344;-72
2023/05/07 03:05:42;;;;;;;0.63;0.63;;;19.10;75.00;;;;;;5042939;28;45166;-72
2023/05/07 03:08:10;;;;;;;0.60;0.52;;;19.10;74.70;;;;;;5042459;28;47978;-72
2023/05/07 03:10:37;;;;;;;0.95;0.70;;;19.10;74.70;;;;;;5042435;27;45276;-72
2023/05/07 03:13:04;;;;;;;1.15;0.70;;;19.10;74.70;;;;;;5043006;28;45270;-72
2023/05/07 03:15:31;;;;;;;0.80;0.65;;;19.10;74.50;;;;;;5040395;28;45358;-72
2023/05/07 03:17:58;;;;;;;0.88;0.75;;;19.10;74.60;;;;;;5042292;28;47886;-72
2023/05/07 03:20:25;;;;;;;0.90;0.65;;;19.10;74.60;;;;;;5042845;28;45182;-72
2023/05/07 03:22:53;;;;;;;1.15;0.70;;;19.10;74.50;;;;;;5042338;28;45417;-72
2023/05/07 03:25:20;;;;;;;1.02;0.65;;;19.20;74.70;;;;;;5042604;28;45293;-72
2023/05/07 03:27:46;;;;;;;1.02;0.80;;;19.20;74.70;;;;;;5042320;28;45419;-71
2023/05/07 03:30:14;;;;;;;1.00;0.88;;;19.20;74.90;;;;;;5042484;28;45213;-72
2023/05/07 03:32:40;;;;;;;0.80;0.70;;;19.20;74.90;;;;;;5042267;28;45350;-72
2023/05/07 03:35:07;;;;;;;0.55;0.55;;;19.20;75.00;;;;;;5041458;28;45427;-72
2023/05/07 03:37:34;;;;;;;1.15;0.60;;;19.10;74.80;;;;;;5040334;28;46590;-72
2023/05/07 03:40:03;;;;;;;1.00;0.63;;;19.10;74.90;;;;;;5042495;28;45354;-72
2023/05/07 03:42:30;;;;;;;0.90;0.70;;;19.10;74.90;;;;;;5042294;28;45364;-72
2023/05/07 03:44:57;;;;;;;0.60;0.60;;;19.10;74.90;;;;;;5042086;28;45451;-72
2023/05/07 03:47:24;;;;;;;0.60;0.60;;;19.10;74.90;;;;;;5041498;28;45303;-72
2023/05/07 03:49:52;;;;;;;1.08;0.75;;;19.10;74.90;;;;;;5041662;28;45824;-72
2023/05/07 03:52:23;;;;;;;0.68;0.68;;;19.10;74.80;;;;;;5042382;28;45374;-72
2023/05/07 03:54:50;;;;;;;0.63;0.63;;;19.10;74.70;;;;;;5041951;28;45489;-72
2023/05/07 03:57:18;;;;;;;1.38;0.68;;;19.10;74.60;;;;;;5041633;28;48028;-72
2023/05/07 03:59:45;;;;;;;0.93;0.70;;;19.20;74.70;;;;;;5041680;27;45276;-72
2023/05/07 04:02:12;;;;;;;0.75;0.50;;;19.20;74.70;;;;;;5029016;28;45426;-72
2023/05/07 04:04:39;;;;;;;1.10;0.60;;;19.20;74.60;;;;;;5041812;28;45373;-72
2023/05/07 04:07:05;;;;;;;0.50;0.50;;;19.20;74.60;;;;;;5041442;28;47833;-72
2023/05/07 04:09:32;;;;;;;1.02;0.80;;;19.20;74.60;;;;;;5038783;28;45762;-71
2023/05/07 04:11:59;;;;;;;0.68;0.60;;;19.20;74.80;;;;;;5041778;28;45375;-72
2023/05/07 04:14:27;;;;;;;1.15;0.70;;;19.20;74.80;;;;;;5041402;28;45525;-72
2023/05/07 04:16:54;;;;;;;1.10;0.70;;;19.20;74.90;;;;;;5041527;28;45262;-71
2023/05/07 04:19:21;;;;;;;0.68;0.68;;;19.20;74.80;;;;;;5041369;28;45329;-72
2023/05/07 04:21:47;;;;;;;1.08;0.80;;;19.20;75.00;;;;;;5033228;28;45416;-72
2023/05/07 04:24:14;;;;;;;0.75;0.70;;;19.20;75.00;;;;;;5041497;28;45249;-72
2023/05/07 04:26:41;;;;;;;1.13;0.70;;;19.20;75.00;;;;;;5038463;28;48156;-72
2023/05/07 04:29:08;;;;;;;1.02;0.70;;;19.20;75.00;;;;;;5041077;28;45312;-72
2023/05/07 04:31:36;;;;;;;0.80;0.60;;;19.10;74.90;;;;;;5041521;28;45324;-71
2023/05/07 04:34:03;;;;;;;0.70;0.68;;;19.10;74.80;;;;;;5041320;28;45224;-71
2023/05/07 04:36:29;;;;;;;1.00;0.70;;;19.20;74.90;;;;;;5040814;28;46308;-72
2023/05/07 04:38:56;;;;;;;0.90;0.68;;;19.20;74.80;;;;;;5041621;28;45358;-72
2023/05/07 04:41:23;;;;;;;1.45;0.80;;;19.20;74.80;;;;;;5041862;28;45355;-72
2023/05/07 04:43:51;;;;;;;0.73;0.68;;;19.20;74.60;;;;;;5041358;27;45525;-71
2023/05/07 04:46:18;;;;;;;0.77;0.77;;;19.20;74.70;;;;;;5040806;28;47843;-72
2023/05/07 04:48:46;;;;;;;0.70;0.70;;;19.20;74.60;;;;;;5041489;28;45311;-71
2023/05/07 04:51:12;;;;;;;0.60;0.60;;;19.20;74.50;;;;;;5041124;28;45347;-72
2023/05/07 04:53:39;;;;;;;0.85;0.68;;;19.20;74.60;;;;;;5041434;28;45252;-72
2023/05/07 04:56:06;;;;;;;0.80;0.80;;;19.20;75.60;;;;;;5041348;28;46578;-71
2023/05/07 04:58:33;;;;;;;0.63;0.63;;;19.20;74.70;;;;;;5041212;28;45367;-71
2023/05/07 05:01:00;;;;;;;0.60;0.60;;;19.20;74.70;;;;;;5041543;28;45325;-71
2023/05/07 05:03:27;;;;;;;0.70;0.70;;;19.20;74.80;;;;;;5041417;28;45616;-72
2023/05/07 05:05:56;;;;;;;0.43;0.43;;;19.20;74.80;;;;;;5040476;28;46094;-72
2023/05/07 05:08:23;;;;;;;1.42;0.77;;;19.20;74.80;;;;;;5041025;28;45262;-71
2023/05/07 05:10:50;;;;;;;0.80;0.60;;;19.20;74.80;;;;;;5041059;28;45248;-72
2023/05/07 05:13:17;;;;;;;0.73;0.70;;;19.10;74.70;;;;;;5041336;28;45255;-72
2023/05/07 05:15:44;;;;;;;0.93;0.70;;;19.20;74.80;;;;;;5046464;28;48268;-71
2023/05/07 05:18:11;;;;;;;0.70;0.70;;;19.20;74.90;;;;;;5047762;28;45306;-71
2023/05/07 05:20:37;;;;;;;0.93;0.52;;;19.20;74.80;;;;;;5048068;28;45344;-71
2023/05/07 05:23:06;;;;;;;0.65;0.60;;;19.20;74.90;;;;;;5047835;28;45407;-72
2023/05/07 05:25:32;;;;;;;2.35;0.82;;;19.20;74.60;;;;;;5046755;28;45293;-72
2023/05/07 05:27:59;;;;;;;0.88;0.80;;;19.20;74.50;;;;;;5047498;28;45379;-71
2023/05/07 05:30:26;;;;;;;0.90;0.70;;;19.20;74.40;;;;;;5047494;28;45251;-72
2023/05/07 05:32:52;;;;;;;0.85;0.60;;;19.20;74.40;;;;;;5047917;27;45177;-71
2023/05/07 05:35:19;;;;;;;0.63;0.50;;;19.20;74.30;;;;;;5046678;28;47323;-72
2023/05/07 05:37:46;;;;;;;0.70;0.70;;;19.20;74.40;;;;;;5047416;28;45209;-72
2023/05/07 05:40:14;;;;;;;0.60;0.60;;;19.20;74.40;;;;;;5047853;27;45315;-72
2023/05/07 05:42:41;;;;;;;0.77;0.63;;;19.20;74.50;;;;;;5047164;28;45576;-72
2023/05/07 05:45:11;;;;;;;0.68;0.68;;;19.20;75.60;;;;;;5046469;28;48251;-71
2023/05/07 05:47:38;;;;;;;0.68;0.50;;;19.20;74.60;;;;;;5047038;28;45450;-72
2023/05/07 05:50:06;;;;;;;0.30;0.30;;;19.20;74.60;;;;;;5046936;28;45415;-71
2023/05/07 05:52:33;;;;;;;0.88;0.50;;;19.20;74.60;;;;;;5047330;28;45606;-71
2023/05/07 05:55:00;;;;;;;0.95;0.60;;;19.20;74.60;;;;;;5046724;28;46476;-72
2023/05/07 05:57:28;;;;;;;0.80;0.63;;;19.20;74.70;;;;;;5047089;28;45346;-72
2023/05/07 05:59:56;;;;;;;0.90;0.68;;;19.20;74.60;;;;;;5045966;27;45307;-72
2023/05/07 06:02:22;;;;;;;1.52;0.70;;;19.20;74.60;;;;;;5042740;28;45181;-72
2023/05/07 06:04:49;;;;;;;0.60;0.60;;;19.20;74.60;;;;;;5046047;28;47509;-72
2023/05/07 06:07:16;;;;;;;0.77;0.68;;;19.20;74.50;;;;;;5047054;28;45563;-72
2023/05/07 06:09:43;;;;;;;0.70;0.50;;;19.20;74.30;;;;;;5047132;28;45252;-71
2023/05/07 06:12:10;;;;;;;1.13;0.60;;;19.20;74.30;;;;;;5046848;28;45305;-71
2023/05/07 06:14:38;;;;;;;0.60;0.50;;;19.20;74.20;;;;;;5046110;28;48002;-72
2023/05/07 06:17:05;;;;;;;0.60;0.50;;;19.20;74.20;;;;;;5046575;28;45338;-72
2023/05/07 06:19:31;;;;;;;0.60;0.57;;;19.20;74.20;;;;;;5046732;28;45404;-72
2023/05/07 06:21:58;;;;;;;1.27;0.80;;;19.20;74.20;;;;;;5046940;27;45260;-73
2023/05/07 06:24:25;;;;;;;0.90;0.40;;;19.20;74.20;;;;;;5046111;28;47292;-71
2023/05/07 06:26:52;;;;;;;1.00;0.60;;;19.20;74.30;;;;;;5039271;28;45474;-72
2023/05/07 06:29:19;;;;;;;1.17;0.70;;;19.20;74.40;;;;;;5042982;28;45346;-72
2023/05/07 06:31:47;;;;;;;0.60;0.60;;;19.20;74.50;;;;;;5043246;28;45299;-71
2023/05/07 06:34:14;;;;;;;0.80;0.43;;;19.20;74.40;;;;;;5042671;28;48119;-72
2023/05/07 06:36:41;;;;;;;0.60;0.50;;;19.20;74.40;;;;;;5042688;28;45399;-72
2023/05/07 06:39:08;;;;;;;0.60;0.60;;;19.20;74.50;;;;;;5042914;28;45441;-72
2023/05/07 06:41:35;;;;;;;1.35;0.60;;;19.20;74.40;;;;;;5043153;28;45346;-71
2023/05/07 06:44:02;;;;;;;0.45;0.45;;;19.20;74.40;;;;;;5042159;28;45463;-72
2023/05/07 06:46:29;;;;;;;0.68;0.50;;;19.20;74.50;;;;;;5042219;28;45275;-72
2023/05/07 06:48:57;;;;;;;0.45;0.45;;;19.20;74.30;;;;;;5042859;28;45292;-72
2023/05/07 06:51:24;;;;;;;0.73;0.57;;;19.20;74.40;;;;;;5042564;28;45303;-72
2023/05/07 06:53:51;;;;;;;0.70;0.60;;;19.20;74.30;;;;;;5042915;28;45459;-72
2023/05/07 06:56:18;;;;;;;0.80;0.50;;;19.20;74.30;;;;;;5042843;28;45212;-72
2023/05/07 06:58:44;;;;;;;0.40;0.30;;;19.20;74.20;;;;;;5042780;28;45271;-72
2023/05/07 07:01:11;;;;;;;1.02;0.60;;;19.20;74.10;;;;;;5043163;28;45431;-71
2023/05/07 07:03:38;;;;;;;1.05;0.50;;;19.20;74.00;;;;;;5041323;28;47801;-71
2023/05/07 07:06:06;;;;;;;0.80;0.70;;;19.30;74.30;;;;;;5042827;28;45249;-72
2023/05/07 07:08:34;;;;;;;0.40;0.40;;;19.30;74.30;;;;;;5042634;28;45298;-72
2023/05/07 07:11:01;;;;;;;0.68;0.40;;;19.20;75.40;;;;;;5042810;28;45620;-71
2023/05/07 07:13:28;;;;;;;0.70;0.70;;;19.30;74.60;;;;;;5042832;28;48238;-71
2023/05/07 07:15:54;;;;;;;1.48;0.43;;;19.20;74.50;;;;;;5042322;28;45405;-72
2023/05/07 07:18:21;;;;;;;0.50;0.50;;;19.20;74.50;;;;;;5042887;28;45262;-72
2023/05/07 07:20:48;;;;;;;1.27;0.50;;;19.30;74.50;;;;;;5042993;28;45296;-71
2023/05/07 07:23:16;;;;;;;0.40;0.40;;;19.20;74.50;;;;;;5042250;27;45294;-72
2023/05/07 07:25:43;;;;;;;0.60;0.55;;;19.20;74.50;;;;;;5041661;28;45388;-72
2023/05/07 07:28:10;;;;;;;0.43;0.43;;;19.20;74.50;;;;;;5042485;28;45413;-72
2023/05/07 07:30:37;;;;;;;0.65;0.50;;;19.20;74.50;;;;;;5042696;27;45287;-72
2023/05/07 07:33:05;;;;;;;0.68;0.50;;;19.20;74.50;;;;;;5041792;28;48945;-72
2023/05/07 07:35:32;;;;;;;0.65;0.40;;;19.20;74.50;;;;;;5039501;28;45329;-72
2023/05/07 07:37:58;;;;;;;0.60;0.60;;;19.20;74.30;;;;;;5042121;28;45503;-72
2023/05/07 07:40:27;;;;;;;0.95;0.52;;;19.20;74.30;;;;;;5042121;28;45539;-72
2023/05/07 07:42:54;;;;;;;0.88;0.43;;;19.30;74.40;;;;;;5042332;28;47119;-71
2023/05/07 07:45:21;;;;;;;0.73;0.70;;;19.30;74.30;;;;;;5041207;28;45421;-72
2023/05/07 07:47:48;;;;;;;0.60;0.40;;;19.30;74.30;;;;;;5022801;28;45266;-72
2023/05/07 07:50:15;;;;;;;0.55;0.52;;;19.20;74.20;;;;;;5029314;28;45446;-71
2023/05/07 07:52:42;;;;;;;0.52;0.40;;;19.30;74.40;;;;;;5041809;28;46256;-71
2023/05/07 07:55:09;;;;;;;0.68;0.40;;;19.30;74.50;;;;;;5041638;28;45248;-71
2023/05/07 07:57:37;;;;;;;0.50;0.40;;;19.30;74.30;;;;;;5042065;28;45301;-71
2023/05/07 08:00:07;;;;;;;0.60;0.38;;;19.30;74.50;;;;;;5042129;28;45561;-71
2023/05/07 08:02:33;;;;;;;0.40;0.40;;;19.30;74.60;;;;;;5041989;28;47533;-71
2023/05/07 08:05:00;;;;;;;0.50;0.50;;;19.30;74.80;;;;;;5041331;28;45647;-71
2023/05/07 08:07:27;;;;;;;0.60;0.40;;;19.30;74.90;;;;;;5042132;28;45324;-72
2023/05/07 08:09:54;;;;;;;0.40;0.40;;;19.30;74.90;;;;;;5042318;27;45430;-72
2023/05/07 08:12:21;;;;;;;0.90;0.50;;;19.30;74.90;;;;;;5041855;28;45232;-71
2023/05/07 08:14:49;;;;;;;0.32;0.32;;;19.30;75.00;;;;;;5041408;28;45188;-72
2023/05/07 08:17:16;;;;;;;0.73;0.60;;;19.30;74.90;;;;;;5042163;28;45354;-71
2023/05/07 08:19:43;;;;;;;0.50;0.40;;;19.30;74.70;;;;;;5041826;28;45326;-72
2023/05/07 08:22:10;;;;;;;0.40;0.40;;;19.20;74.60;;;;;;5041248;28;46911;-72
2023/05/07 08:24:37;;;;;;;0.98;0.43;;;19.30;74.60;;;;;;5041150;28;45514;-72
2023/05/07 08:27:04;;;;;;;0.30;0.30;;;19.30;74.50;;;;;;5041527;28;45374;-71
2023/05/07 08:29:31;;;;;;;0.43;0.38;;;19.30;74.50;;;;;;5042242;28;45549;-72
2023/05/07 08:31:59;;;;;;;0.63;0.50;;;19.30;74.40;;;;;;5041805;28;45488;-71
2023/05/07 08:34:26;;;;;;;0.52;0.45;;;19.30;74.40;;;;;;5041530;27;45293;-72
2023/05/07 08:36:52;;;;;;;0.43;0.43;;;19.30;74.50;;;;;;5041353;28;45217;-72
2023/05/07 08:39:19;;;;;;;0.52;0.40;;;19.30;74.70;;;;;;5041641;28;45425;-73
2023/05/07 08:41:46;;;;;;;0.50;0.40;;;19.30;74.90;;;;;;5041368;28;48072;-68
2023/05/07 08:44:15;;;;;;;0.40;0.40;;;19.30;75.00;;;;;;5041319;28;45245;-71
2023/05/07 08:46:47;;;;;;;1.10;0.50;;;19.30;74.90;;;;;;5040183;28;45219;-71
2023/05/07 08:49:16;;;;;;;0.98;0.38;;;19.30;74.90;;;;;;5040889;28;45465;-72
2023/05/07 08:51:43;;;;;;;0.60;0.50;;;19.30;74.90;;;;;;5040951;28;46727;-71
2023/05/07 08:54:11;;;;;;;0.52;0.45;;;19.30;74.90;;;;;;5041523;27;45208;-71
2023/05/07 08:56:39;;;;;;;1.10;0.55;;;19.30;74.90;;;;;;5041525;28;45325;-72
2023/05/07 08:59:06;;;;;;;0.55;0.55;;;19.30;74.90;;;;;;5041541;28;45306;-71
2023/05/07 09:01:35;;;;;;;0.75;0.50;;;19.30;74.90;;;;;;5041447;28;47099;-72
2023/05/07 09:04:02;;;;;;;0.55;0.43;;;19.30;74.80;;;;;;5040759;28;45289;-72
2023/05/07 09:06:31;;;;;;;0.40;0.40;;;19.30;74.60;;;;;;5041218;28;45240;-72
2023/05/07 09:08:58;;;;;;;0.60;0.50;;;19.30;74.50;;;;;;5041262;27;45458;-71
2023/05/07 09:11:25;;;;;;;0.40;0.40;;;19.30;74.30;;;;;;5041425;28;45388;-72
2023/05/07 09:13:55;;;;;;;0.25;0.25;;;19.30;74.30;;;;;;5041050;28;45387;-71
2023/05/07 09:16:22;;;;;;;0.20;0.20;;;19.30;74.20;;;;;;5040920;28;45365;-71
2023/05/07 09:18:52;;;;;;;0.47;0.47;;;19.30;74.20;;;;;;5041304;28;45474;-72
2023/05/07 09:21:20;;;;;;;0.40;0.40;;;19.30;74.30;;;;;;5040905;28;46298;-72
2023/05/07 09:23:49;;;;;;;0.50;0.40;;;19.30;74.30;;;;;;5040858;28;45680;-72
2023/05/07 09:26:15;;;;;;;0.52;0.38;;;19.30;74.30;;;;;;5040788;28;45306;-71
2023/05/07 09:28:43;;;;;;;0.45;0.38;;;19.30;74.30;;;;;;5041095;28;45401;-71
2023/05/07 09:31:11;;;;;;;0.40;0.40;;;19.30;74.40;;;;;;5041001;28;47264;-71
2023/05/07 09:33:38;;;;;;;0.25;0.25;;;19.30;74.40;;;;;;5027347;28;46317;-72
2023/05/07 09:36:05;;;;;;;0.57;0.40;;;19.30;74.50;;;;;;5020792;28;45360;-72
2023/05/07 09:38:33;;;;;;;0.30;0.30;;;19.30;74.50;;;;;;5038609;28;45410;-71
2023/05/07 09:41:05;;;;;;;0.30;0.30;;;19.30;74.50;;;;;;5040452;28;46282;-71
2023/05/07 09:43:36;;;;;;;0.30;0.30;;;19.30;74.50;;;;;;5040841;28;45734;-71
2023/05/07 09:46:08;;;;;;;1.17;0.32;;;19.30;74.30;;;;;;5039741;28;45421;-71
2023/05/07 09:48:40;;;;;;;0.30;0.30;;;19.30;74.20;;;;;;5040568;28;45339;-71
2023/05/07 09:51:19;;;;;;;0.30;0.30;;;19.30;74.00;;;;;;5040060;28;46325;-71
2023/05/07 09:53:47;;;;;;;0.77;0.60;;;19.30;74.00;;;;;;5040151;27;45234;-72
2023/05/07 09:56:16;;;;;;;0.30;0.30;;;19.30;73.90;;;;;;5040235;28;45287;-71
2023/05/07 09:58:44;;;;;;;1.08;0.43;;;19.30;73.90;;;;;;5040591;28;45196;-71
2023/05/07 10:01:12;;;;;;;0.60;0.40;;;19.30;73.80;;;;;;5031298;28;45383;-72
2023/05/07 10:03:42;;;;;;;0.30;0.30;;;19.40;74.00;;;;;;5041906;28;45200;-73
2023/05/07 10:06:10;;;;;;;0.40;0.40;;;19.40;74.10;;;;;;5043033;28;45370;-71
2023/05/07 10:08:37;;;;;;;0.45;0.30;;;19.40;74.20;;;;;;5043749;28;45200;-71
2023/05/07 10:11:05;;;;;;;0.50;0.40;;;19.40;74.30;;;;;;5043515;28;47316;-71
2023/05/07 10:13:37;;;;;;;0.30;0.30;;;19.40;74.20;;;;;;5042854;28;45342;-72
2023/05/07 10:16:05;;;;;;;0.40;0.40;;;19.30;74.20;;;;;;5043041;27;45205;-72
2023/05/07 10:18:32;;;;;;;0.32;0.30;;;19.30;74.20;;;;;;5043641;28;45243;-71
2023/05/07 10:21:05;;;;;;;0.75;0.60;;;19.30;74.20;;;;;;5043270;28;47025;-72
2023/05/07 10:23:33;;;;;;;0.30;0.30;;;19.30;74.10;;;;;;5042889;28;45589;-71
2023/05/07 10:26:02;;;;;;;0.30;0.30;;;19.30;73.90;;;;;;5042181;28;45489;-71
2023/05/07 10:28:31;;;;;;;0.40;0.40;;;19.30;73.80;;;;;;5043094;28;45423;-71
2023/05/07 10:31:10;;;;;;;0.25;0.25;;;19.30;73.80;;;;;;5043076;28;45237;-71
2023/05/07 10:33:38;;;;;;;0.30;0.30;;;19.40;73.80;;;;;;5042805;28;45286;-70
2023/05/07 10:36:07;;;;;;;0.40;0.40;;;19.40;74.80;;;;;;5043140;27;45228;-71
2023/05/07 10:38:35;;;;;;;1.13;0.50;;;19.40;73.70;;;;;;5043125;27;45641;-71
2023/05/07 10:41:04;;;;;;;0.55;0.30;;;19.40;73.70;;;;;;5042758;28;46626;-71
2023/05/07 10:43:41;;;;;;;0.30;0.30;;;19.40;73.60;;;;;;5042766;28;45390;-71
2023/05/07 10:46:15;;;;;;;0.30;0.30;;;19.40;73.60;;;;;;5040030;28;45368;-71
2023/05/07 10:49:07;;;;;;;0.38;0.30;;;19.40;73.60;;;;;;5043214;28;45367;-71
2023/05/07 10:51:35;;;;;;;1.25;0.38;;;19.40;73.70;;;;;;5042797;28;45793;-71
2023/05/07 10:54:26;;;;;;;0.60;0.20;;;19.40;73.80;;;;;;5043041;28;45209;-71
2023/05/07 10:56:53;;;;;;;1.00;0.40;;;19.40;73.90;;;;;;5043097;27;45369;-71
2023/05/07 10:59:42;;;;;;;0.38;0.20;;;19.40;74.00;;;;;;5043238;27;45185;-71
2023/05/07 11:02:13;;;;;;;0.32;0.30;;;19.40;74.00;;;;;;5042384;28;48077;-71
2023/05/07 11:04:41;;;;;;;0.40;0.40;;;19.40;74.10;;;;;;5042550;27;45298;-72
2023/05/07 11:07:29;;;;;;;0.20;0.20;;;19.40;74.70;;;;;;5042801;28;45613;-71
2023/05/07 11:10:04;;;;;;;0.60;0.40;;;19.40;74.30;;;;;;5035881;28;45285;-72
2023/05/07 11:12:50;;;;;;;0.68;0.30;;;19.40;74.20;;;;;;5041652;28;46673;-71
2023/05/07 11:15:38;;;;;;;0.80;0.30;;;19.40;74.20;;;;;;5042145;28;45503;-71
2023/05/07 11:18:06;;;;;;;0.30;0.30;;;19.40;74.20;;;;;;5043048;28;45277;-71
2023/05/07 11:20:55;;;;;;;0.70;0.40;;;19.40;74.00;;;;;;5042702;28;45281;-71
2023/05/07 11:23:57;;;;;;;0.40;0.40;;;19.40;74.90;;;;;;5035464;28;45370;-71
2023/05/07 11:26:24;;;;;;;0.38;0.30;;;19.40;73.80;;;;;;5022196;28;45322;-71
2023/05/07 11:28:52;;;;;;;0.63;0.30;;;19.40;73.70;;;;;;5034385;28;45316;-71
2023/05/07 11:31:23;;;;;;;0.38;0.30;;;19.40;73.60;;;;;;5042573;28;45391;-71
2023/05/07 11:33:51;;;;;;;1.98;0.40;;;19.40;73.60;;;;;;5033935;28;48263;-71
2023/05/07 11:36:20;;;;;;;0.30;0.30;;;19.40;73.70;;;;;;5042247;28;45287;-71
2023/05/07 11:38:47;;;;;;;0.63;0.40;;;19.40;73.80;;;;;;5042365;28;45247;-71
2023/05/07 11:41:14;;;;;;;0.30;0.30;;;19.40;73.80;;;;;;5042205;28;45455;-71
2023/05/07 11:43:55;;;;;;;0.57;0.40;;;19.40;73.90;;;;;;5041975;28;46543;-71
2023/05/07 11:46:22;;;;;;;1.35;0.60;;;19.40;73.80;;;;;;5041153;28;45407;-72
2023/05/07 11:48:51;;;;;;;0.57;0.47;;;19.40;73.80;;;;;;5033969;28;45344;-71
2023/05/07 11:51:21;;;;;;;0.40;0.40;;;19.40;73.70;;;;;;5041870;28;45163;-71
2023/05/07 11:53:48;;;;;;;0.50;0.50;;;19.40;73.60;;;;;;5042058;28;46360;-72
2023/05/07 11:56:16;;;;;;;0.30;0.30;;;19.40;73.70;;;;;;5041836;28;45228;-72
2023/05/07 11:58:44;;;;;;;0.30;0.30;;;19.40;73.50;;;;;;5041949;28;45237;-71
2023/05/07 12:01:13;;;;;;;0.28;0.28;;;19.40;73.50;;;;;;5042325;28;45414;-71
2023/05/07 12:03:43;;;;;;;0.57;0.40;;;19.40;73.40;;;;;;5041408;28;46074;-71
2023/05/07 12:06:12;;;;;;;0.40;0.40;;;19.40;73.30;;;;;;5041314;28;45313;-71
2023/05/07 12:08:40;;;;;;;0.73;0.38;;;19.40;73.30;;;;;;5041724;28;45346;-72
2023/05/07 12:11:13;;;;;;;0.50;0.47;;;19.40;73.20;;;;;;5042034;28;45362;-71
2023/05/07 12:13:40;;;;;;;0.43;0.32;;;19.40;73.10;;;;;;5041506;28;48202;-72
2023/05/07 12:16:08;;;;;;;0.57;0.50;;;19.40;73.00;;;;;;5041484;28;45401;-71
2023/05/07 12:18:36;;;;;;;0.40;0.40;;;19.40;73.00;;;;;;5042145;28;45364;-72
2023/05/07 12:21:04;;;;;;;0.70;0.35;;;19.40;73.10;;;;;;5042357;28;45315;-72
2023/05/07 12:23:33;;;;;;;0.30;0.22;;;19.40;73.10;;;;;;5040092;28;45339;-71
2023/05/07 12:26:00;;;;;;;0.85;0.55;;;19.40;73.10;;;;;;5041117;28;45207;-72
2023/05/07 12:28:27;;;;;;;0.50;0.30;;;19.40;73.10;;;;;;5041717;28;45349;-72
2023/05/07 12:30:54;;;;;;;0.50;0.25;;;19.40;73.10;;;;;;5041772;28;45312;-72
2023/05/07 12:33:26;;;;;;;1.45;0.60;;;19.40;73.10;;;;;;5041712;28;46084;-71
2023/05/07 12:35:55;;;;;;;0.65;0.40;;;19.40;73.10;;;;;;5021551;28;45560;-71
2023/05/07 12:38:22;;;;;;;0.40;0.40;;;19.40;73.10;;;;;;5021922;28;45455;-71
2023/05/07 12:40:51;;;;;;;0.77;0.40;;;19.40;73.10;;;;;;5041516;28;45304;-71
2023/05/07 12:43:19;;;;;;;0.70;0.40;;;19.40;72.90;;;;;;5041561;28;46094;-71
2023/05/07 12:45:47;;;;;;;0.47;0.40;;;19.40;72.90;;;;;;5040158;27;45337;-72
2023/05/07 12:48:14;;;;;;;0.32;0.30;;;19.40;72.80;;;;;;5041402;28;45237;-71
2023/05/07 12:50:41;;;;;;;0.73;0.35;;;19.40;72.80;;;;;;5041274;27;45272;-71
2023/05/07 12:53:09;;;;;;;0.75;0.30;;;19.40;72.70;;;;;;5041092;28;46534;-72